Orange City, FL

3:40 PM EST on December 05, 2016 (GMT -0500)
Pine Crest Estates | | Change Station

Elev 72 ft 28.96 °N, 81.30 °W | Updated 19 seconds ago

Scattered Clouds
Scattered Clouds
85.8 °F
Feels Like 84 °F
N
1.8
Wind Variable Wind from SSE
Gusts 2.5 mph

Today
High -- | Low -- °F
--% Chance of Precip.
Yesterday
High -- | Low -- °F
Precip. -- in
Pressure 29.88 in
Visibility 10.0 miles
Clouds Scattered Clouds 3600 ft
Heat Index 84 °F
Dew Point 51 °F
Humidity 30%
Rainfall 0.00 in
Snow Depth Not available.
7:04 AM 5:27 PM
Waxing Crescent, 34% visible
METAR KDED 052035Z AUTO 19007KT 10SM SCT036 29/20 A2988 RMK AO2
Pressure 29.88 in
Visibility 10.0 miles
Clouds Scattered Clouds 3600 ft
Heat Index 84 °F
Dew Point 51 °F
Humidity 30%
Rainfall 0.00 in
Snow Depth Not available.
7:04 AM 5:27 PM
Waxing Crescent, 34% visible
METAR KDED 052035Z AUTO 19007KT 10SM SCT036 29/20 A2988 RMK AO2

10-Day Weather Forecast

Almanac

Astronomy

Dec. 05, 2016 Rise Set
Actual Time
Civil Twilight
Nautical Twilight
Astronomical Twilight
Moon
Length of Visible Light
Length of Day
Tomorrow will be .
, % of the Moon is Illuminated

Today's Extremes

State Highs State Lows

Community

WunderPhotos

Upload Photos

1,955,859 photos uploaded!

WunderBlog® & News

Nearby

Air Quality

  Air Quality AQ Index Pollutant
Not available.

Snow Depth

Station Depth Elevation

Earthquake Activity

City Distance Mag. Time & Date
Minimum magnitude displayed is 2.5.

Coastal Water Temperatures

Place Temperature

Stations

Nearby Weather Stations

Station Location Temp. Windchill Dew Point Humidity Wind Precip. Elev Updated Type
                   

Watches & Warnings

There are currently no watches in effect.